Карточка аэропорта USRR

Внимание!
Информация на этой странице в стадии наполнения.
Если вы не увидели какой-то информации, или заметили неточность - пожалуйста сообщите нам!
Спасибо!
Команда RU-STAFF
Название аэропортаСургут
Название аэропорта (англ.)Surgut
Превышение196 ft. (59.7 m.)
Координаты61°20.502', 73°24.168'
Высота перехода700m
Эшелон переходаQFE>=742mm:FL040; QFE<=742mm:FL050
Коды ответчика5570-5577
Зона ОрВДТюмень РПИ (USTV)
Данные METARUSRR 140100Z VRB01MPS CAVOK 21/17 Q1014 R25/CLRD60 NOSIG RMK QFE755
Проноз погоды (TAF)USRR 131947Z 1321/1421 33003G10MPS 9999 SCT016 TEMPO 1321/1403 VRB01MPS 0500 FG SCT002 BKN016 FM140300 21003G12MPS 9999 BKN020 TEMPO 1406/1418 5000 -TSRA FEW003 BKN016CB
NOTAMshow/hide NOTAM
AWOS   TABLE

Информация о ВПП

ВПП Длина ВПП (м.) Покрытие Курс ВПП Частота ILS
072780Асфальтобетон73110.5
252780Асфальтобетон253109.1

Диспетчерские позиции

Позывной Наименование органа УВД Частота
USRR_APPСургут-Подход129.300
USRR_TWRСургут-Вышка120.800
USRR_R_APPСургут - Круг120.300



Спутниковое изображение